Hauptseite
METAR-TAF:

METAR-TAF

Flughäfen :

Flughafen Cherbourg-Maupertus

Cherbourg, Frankreich

Breite: 49-39N, Länge: 001-28W, Höhe: 138 m

Beobachtung

Neuester Wetterbericht von vor 33 Minuten, um 11:00 UTC
Wind 9 kt aus Nordost, variierte zwischen Nord/Nordost und Ost
Temperatur 21°C
Luftfeuchtigkeit 56%
Luftdruck 1018 hPa
Sichtweite 10 km oder mehr
keine Wolken unter 1500 m und keine Kumulonimbus oder Gewitterwolken

METAR: LFRC 191100Z AUTO 05009KT 020V080 CAVOK 21/12 Q1018 NOSIG

Zeit: 13:33 (11:33 UTC)

Prognose

Neuester Wetterbericht von vor 3 Stunden und 33 Minuten, um 08:00 UTC
Gültige Prognose vom 19 um 09 UTC bis 19 um 18 UTC
Wind 10 kt aus Nord/Nordost
Sichtweite 10 km oder mehr
keine Wolken unter 1500 m und keine Kumulonimbus oder Gewitterwolken

TAF: LFRC 190800Z 1909/1918 03010KT CAVOK

Wetterbeobachtungen und Prognosen von mehr als 4000 Flughäfen (METAR und TAF Bericht).

Die verfügbaren Stationen werden durch gelbe und rote Markierungen auf der Karte dargestellt.

Führen Sie die Maus auf sie, um den Namen der Station zu sehen.

Darauf klicken, um die Beobachtung von Wetterbeobachtungen und Prognosen zu sehen.

Um die Karte zu ändern : klicken Sie auf den grünen Tasten mit einem schwarzen Kreuz Zum Vergrößern, auf den grünen Button mit einem Gedankenstrich zu verkleinern, oder auf die grünen Pfeile für benachbarte Karten.


METAR-TAF: